LFBZ/BIQ METAR and TAF weather

Enter ICAO airport designator
Station Type Date Time Source
LFBZ METAR 2020/02/22 07:30 UTC NOAA

LFBZ 220730Z AUTO VRB03KT 9000 NSC 05/05 Q1032 TEMPO 0500 FG VV///


Station Type Date Time Source
LFBZ Decoded METAR 2020/02/22 07:30 UTC NOAA

Biarritz, France (LFBZ) 43-28N 001-32W 71M
Feb 22, 2020 - 02:30 AM EST / 2020.02.22 0730 UTC
Wind: Variable at 3 MPH (3 KT):0
Visibility: 5 mile(s):0
Temperature: 41 F (5 C)
Dew Point: 41 F (5 C)
Relative Humidity: 100%
Pressure (altimeter): 30.47 in. Hg (1032 hPa)
ob: LFBZ 220730Z AUTO VRB03KT 9000 NSC 05/05 Q1032 TEMPO 0500 FG VV///
cycle: 7

Station Type Date Time Source
LFBZ TAF 2020/02/22 06:50 UTC NOAA

TAF LFBZ 220500Z 2206/2306 09006KT CAVOK PROB40 2206/2209 0500 FG VV///
BECMG 2211/2213 29005KT PROB40 2216/2218 2000 BR BKN001 PROB40 2300/2306 11004KT 0800 FG VV///

Example: see airport list